Weather at Vauxhall Airport

Public forecast

Using degrees Celsius for public forecast. Weather courtesy of forecast.io.

Closest aviation weather report (METAR) to Vauxhall Airport

Closest report is Lethbridge County Airport, 36.8 nm (68.2 km) SW.

2024/07/21 05:00 (retrieved 20 minutes ago)

CYQL 210500Z AUTO 18007KT 18/16 A3023 RMK CLD MISG WX MISG VIS MISG SLP226 DENSITY ALT 3800FT

Closest aviation forecast (TAF) to Vauxhall Airport

Forecast is more than 12 hours old.

Closest forecast is Malmstrom Air Force Base, 155.9 nm (288.7 km) SSE.

2024/07/19 13:57 (retrieved 2 days ago)

TAF KGFA 191300Z 1913/2019 VRB06KT 9999 SKC QNH3017INS BECMG 1920/1921 35009KT 9999 FEW120 QNH3016INS TX33/1922Z TN16/2012Z